Time;durP1;ratioP1;P1;durP2;ratioP2;P2;SDS_P1;SDS_P2;PMS_P1;PMS_P2;Temp;Humidity;BMP_temperature;BMP_pressure;BME280_temperature;BME280_humidity;BME280_pressure;Samples;Min_cycle;Max_cycle;Signal;HPM_P1;HPM_P2
2021/03/05 00:01:44;;;;;;;26.02;9.93;;;4.50;99.90;;;;;;5054226;28;20157;-77
2021/03/05 00:04:10;;;;;;;29.13;10.23;;;4.50;99.90;;;;;;5054984;28;20103;-77
2021/03/05 00:06:38;;;;;;;23.38;10.27;;;4.50;99.90;;;;;;5049659;28;20142;-78
2021/03/05 00:09:05;;;;;;;17.08;9.10;;;4.50;99.90;;;;;;5053439;28;20083;-77
2021/03/05 00:11:31;;;;;;;21.77;9.15;;;4.50;99.90;;;;;;5052235;28;20160;-77
2021/03/05 00:13:57;;;;;;;25.27;10.20;;;4.50;99.90;;;;;;5054221;28;20167;-77
2021/03/05 00:16:24;;;;;;;27.05;9.27;;;4.50;99.90;;;;;;5054198;28;20128;-78
2021/03/05 00:18:50;;;;;;;19.65;9.35;;;4.50;99.90;;;;;;5053843;28;20080;-78
2021/03/05 00:21:17;;;;;;;21.88;9.00;;;4.50;99.90;;;;;;5053091;28;20068;-77
2021/03/05 00:23:44;;;;;;;19.60;9.55;;;4.50;99.90;;;;;;5053275;28;20138;-77
2021/03/05 00:26:10;;;;;;;25.27;9.68;;;4.50;99.90;;;;;;5053162;28;20087;-77
2021/03/05 00:28:37;;;;;;;29.42;9.90;;;4.50;99.90;;;;;;5052433;28;20076;-76
2021/03/05 00:31:03;;;;;;;23.38;8.98;;;4.50;99.90;;;;;;5052995;28;20088;-76
2021/03/05 00:33:30;;;;;;;26.48;9.55;;;4.60;99.90;;;;;;5055593;28;20178;-76
2021/03/05 00:35:58;;;;;;;20.73;9.13;;;4.60;99.90;;;;;;5054489;28;20073;-77
2021/03/05 00:38:25;;;;;;;21.95;8.80;;;4.60;99.90;;;;;;5054853;28;20049;-76
2021/03/05 00:40:55;;;;;;;27.73;9.15;;;4.70;99.90;;;;;;5054663;28;20127;-77
2021/03/05 00:43:22;;;;;;;19.90;9.80;;;4.70;99.90;;;;;;5055340;28;20056;-77
2021/03/05 00:45:49;;;;;;;24.75;8.40;;;4.70;99.90;;;;;;5052624;28;20045;-76
2021/03/05 00:48:16;;;;;;;22.67;9.02;;;4.60;99.90;;;;;;5050842;28;20128;-75
2021/03/05 00:50:42;;;;;;;20.90;8.75;;;4.70;99.90;;;;;;5052083;28;20084;-76
2021/03/05 00:53:08;;;;;;;22.77;9.43;;;4.60;99.90;;;;;;5049015;28;20138;-77
2021/03/05 00:55:35;;;;;;;24.35;8.85;;;4.60;99.90;;;;;;5051865;28;20119;-76
2021/03/05 00:58:02;;;;;;;18.00;8.80;;;4.70;99.90;;;;;;5051928;28;20084;-78
2021/03/05 01:00:29;;;;;;;24.58;7.97;;;4.60;99.90;;;;;;5049365;28;20132;-76
2021/03/05 01:02:56;;;;;;;24.98;8.05;;;4.60;99.90;;;;;;5052128;28;20049;-79
2021/03/05 01:05:22;;;;;;;25.88;8.43;;;4.60;99.90;;;;;;5052499;28;20103;-75
2021/03/05 01:07:48;;;;;;;19.70;8.35;;;4.60;99.90;;;;;;5049218;28;20216;-75
2021/03/05 01:10:15;;;;;;;30.80;8.95;;;4.50;99.90;;;;;;5050846;28;20503;-74
2021/03/05 01:12:42;;;;;;;22.15;7.93;;;4.50;99.90;;;;;;5051384;28;20482;-75
2021/03/05 01:15:10;;;;;;;18.65;8.00;;;4.40;99.90;;;;;;5052175;28;20131;-75
2021/03/05 01:17:36;;;;;;;31.60;8.63;;;4.40;99.90;;;;;;5051903;28;20095;-76
2021/03/05 01:20:07;;;;;;;16.70;7.72;;;4.40;99.90;;;;;;5052035;28;20138;-75
2021/03/05 01:22:34;;;;;;;25.02;8.60;;;4.40;99.90;;;;;;5051940;28;20081;-76
2021/03/05 01:25:00;;;;;;;21.70;8.13;;;4.40;99.90;;;;;;5052342;28;20136;-76
2021/03/05 01:27:27;;;;;;;21.55;8.02;;;4.30;99.90;;;;;;5051790;28;20128;-76
2021/03/05 01:29:53;;;;;;;19.90;8.18;;;4.30;99.90;;;;;;5052741;28;20080;-75
2021/03/05 01:32:20;;;;;;;22.52;8.05;;;4.30;99.90;;;;;;5052495;28;20153;-76
2021/03/05 01:34:47;;;;;;;19.80;7.53;;;4.30;99.90;;;;;;5052211;28;20518;-76
2021/03/05 01:37:13;;;;;;;25.65;7.47;;;4.30;99.90;;;;;;5052093;28;20084;-75
2021/03/05 01:39:39;;;;;;;17.63;6.78;;;4.30;99.90;;;;;;5053406;28;20052;-76
2021/03/05 01:42:07;;;;;;;20.10;7.60;;;4.30;99.90;;;;;;5052042;28;20099;-75
2021/03/05 01:44:33;;;;;;;23.83;8.80;;;4.20;99.90;;;;;;5052496;28;20543;-76
2021/03/05 01:47:00;;;;;;;24.10;8.13;;;4.20;99.90;;;;;;5052235;28;20095;-75
2021/03/05 01:49:27;;;;;;;20.45;7.72;;;4.20;99.90;;;;;;5052758;28;20071;-76
2021/03/05 01:51:53;;;;;;;25.95;8.10;;;4.20;99.90;;;;;;5052900;28;20065;-77
2021/03/05 01:54:20;;;;;;;19.90;8.68;;;4.10;99.90;;;;;;5053048;28;20183;-77
2021/03/05 01:56:49;;;;;;;15.23;7.65;;;4.10;99.90;;;;;;5059669;28;20158;-76
2021/03/05 01:59:19;;;;;;;23.25;8.20;;;4.10;99.90;;;;;;5069960;28;20045;-77
2021/03/05 02:01:45;;;;;;;24.67;7.45;;;4.10;99.90;;;;;;5070187;28;20053;-75
2021/03/05 02:04:13;;;;;;;26.75;7.82;;;4.10;99.90;;;;;;5067102;28;20049;-76
2021/03/05 02:06:41;;;;;;;22.65;9.93;;;4.10;99.90;;;;;;5052187;28;20087;-76
2021/03/05 02:09:08;;;;;;;23.17;7.90;;;4.10;99.90;;;;;;5052299;28;20124;-76
2021/03/05 02:11:35;;;;;;;25.75;7.90;;;4.20;99.90;;;;;;5053174;28;20099;-77
2021/03/05 02:14:05;;;;;;;18.58;7.25;;;4.20;99.90;;;;;;5053665;28;20048;-75
2021/03/05 02:16:42;;;;;;;22.42;7.93;;;4.20;99.90;;;;;;5051687;28;20056;-76
2021/03/05 02:19:42;;;;;;;23.42;7.45;;;4.20;99.90;;;;;;5051811;28;20080;-76
2021/03/05 02:22:22;;;;;;;23.80;7.72;;;4.20;99.90;;;;;;5051906;28;20051;-75
2021/03/05 02:25:28;;;;;;;23.15;7.78;;;4.10;99.90;;;;;;5051636;28;20131;-76
2021/03/05 02:28:31;;;;;;;26.90;8.13;;;4.20;99.90;;;;;;5051422;28;20175;-76
2021/03/05 02:31:12;;;;;;;24.90;8.45;;;4.20;99.90;;;;;;5051819;28;20127;-76
2021/03/05 02:33:45;;;;;;;27.88;9.32;;;4.20;99.90;;;;;;5051832;28;20067;-76
2021/03/05 02:36:17;;;;;;;21.60;8.73;;;4.20;99.90;;;;;;5052029;28;20135;-78
2021/03/05 02:38:55;;;;;;;25.15;8.82;;;4.20;99.90;;;;;;5051958;28;20052;-77
2021/03/05 02:41:23;;;;;;;28.50;8.48;;;4.20;99.90;;;;;;5052283;28;20132;-77
2021/03/05 02:43:50;;;;;;;27.48;8.45;;;4.30;99.90;;;;;;5051911;28;20112;-76
2021/03/05 02:46:18;;;;;;;21.15;8.75;;;4.20;99.90;;;;;;5052001;28;20049;-76
2021/03/05 02:48:47;;;;;;;26.27;8.73;;;4.20;99.90;;;;;;5051587;28;20080;-76
2021/03/05 02:51:16;;;;;;;26.45;9.57;;;4.20;99.90;;;;;;5051656;28;20599;-77
2021/03/05 02:53:44;;;;;;;26.27;9.45;;;4.20;99.90;;;;;;5051654;28;20088;-75
2021/03/05 02:56:15;;;;;;;18.30;9.20;;;4.10;99.90;;;;;;5051293;28;20428;-77
2021/03/05 02:58:44;;;;;;;30.25;10.15;;;4.20;99.90;;;;;;5051487;28;20518;-76
2021/03/05 03:01:13;;;;;;;21.98;10.32;;;4.20;99.90;;;;;;5077476;22;20121;-82
2021/03/05 03:03:42;;;;;;;28.17;10.50;;;4.20;99.90;;;;;;5060076;28;20057;-83
2021/03/05 03:06:10;;;;;;;31.15;10.95;;;4.20;99.90;;;;;;5061115;28;20552;-82
2021/03/05 03:08:37;;;;;;;28.25;10.95;;;4.20;99.90;;;;;;5061205;28;20052;-82
2021/03/05 03:11:10;;;;;;;30.35;11.65;;;4.20;99.90;;;;;;5061556;28;20049;-82
2021/03/05 03:13:38;;;;;;;25.17;11.02;;;4.30;99.90;;;;;;5066846;28;20045;-82
2021/03/05 03:16:06;;;;;;;26.05;10.95;;;4.30;99.90;;;;;;5068677;28;20072;-81
2021/03/05 03:18:35;;;;;;;32.75;11.75;;;4.20;99.90;;;;;;5069587;28;20052;-81
2021/03/05 03:21:04;;;;;;;38.92;14.27;;;4.20;99.90;;;;;;5068669;28;20060;-81
2021/03/05 03:23:33;;;;;;;38.30;13.23;;;4.30;99.90;;;;;;5066510;28;20084;-82
2021/03/05 03:26:00;;;;;;;36.28;13.93;;;4.30;99.90;;;;;;5072746;28;20044;-81
2021/03/05 03:28:27;;;;;;;32.20;13.82;;;4.30;99.90;;;;;;5074953;28;20041;-84
2021/03/05 03:30:53;;;;;;;42.38;15.18;;;4.20;99.90;;;;;;5069859;28;20052;-83
2021/03/05 03:33:20;;;;;;;40.72;16.90;;;4.20;99.90;;;;;;5062903;28;20494;-83
2021/03/05 03:35:47;;;;;;;37.75;17.80;;;4.20;99.90;;;;;;5061657;28;20071;-82
2021/03/05 03:38:14;;;;;;;42.47;18.70;;;4.20;99.90;;;;;;5061994;28;20134;-82
2021/03/05 03:40:43;;;;;;;40.30;18.60;;;4.20;99.90;;;;;;5060082;28;20071;-83
2021/03/05 03:43:09;;;;;;;41.65;19.10;;;4.20;99.90;;;;;;5060217;28;20080;-81
2021/03/05 03:45:38;;;;;;;40.47;20.70;;;4.20;99.90;;;;;;5059628;28;20077;-81
2021/03/05 03:48:06;;;;;;;46.70;20.50;;;4.10;99.90;;;;;;5058996;28;20092;-81
2021/03/05 03:50:36;;;;;;;47.90;23.33;;;4.20;99.90;;;;;;5059965;28;20060;-80
2021/03/05 03:53:07;;;;;;;55.75;24.67;;;4.20;99.90;;;;;;5059136;28;20048;-81
2021/03/05 03:55:34;;;;;;;53.58;24.38;;;4.20;99.90;;;;;;5060952;28;20113;-82
2021/03/05 03:58:02;;;;;;;50.55;24.85;;;4.20;99.90;;;;;;5063817;28;20056;-82
2021/03/05 04:00:29;;;;;;;50.80;24.30;;;4.20;99.90;;;;;;5064363;28;20223;-83
2021/03/05 04:02:57;;;;;;;53.30;27.40;;;4.20;99.90;;;;;;5065812;28;20087;-82
2021/03/05 04:05:27;;;;;;;50.55;24.23;;;4.20;99.90;;;;;;5059880;28;20048;-82
2021/03/05 04:07:57;;;;;;;48.58;25.17;;;4.10;99.90;;;;;;5059673;28;20049;-83
2021/03/05 04:10:24;;;;;;;46.85;25.50;;;4.10;99.90;;;;;;5063814;28;20530;-84
2021/03/05 04:12:52;;;;;;;48.42;25.98;;;4.10;99.90;;;;;;5063902;28;20537;-82
2021/03/05 04:15:19;;;;;;;47.20;24.23;;;4.10;99.90;;;;;;5064242;28;20330;-83
2021/03/05 04:17:46;;;;;;;44.00;22.45;;;4.10;99.90;;;;;;5065121;28;20049;-83
2021/03/05 04:20:15;;;;;;;44.88;23.85;;;4.20;99.90;;;;;;5069650;28;20049;-83
2021/03/05 04:22:42;;;;;;;41.00;21.45;;;4.20;99.90;;;;;;5057293;28;20086;-83
2021/03/05 04:25:11;;;;;;;38.67;21.85;;;4.10;99.90;;;;;;5059712;28;20088;-83
2021/03/05 04:27:37;;;;;;;40.75;22.27;;;4.10;99.90;;;;;;5061154;28;20455;-82
2021/03/05 04:30:06;;;;;;;38.22;21.50;;;4.10;99.90;;;;;;5060260;28;20092;-82
2021/03/05 04:32:33;;;;;;;39.60;21.98;;;4.00;99.90;;;;;;5061119;28;20494;-82
2021/03/05 04:35:00;;;;;;;38.92;22.52;;;4.00;99.90;;;;;;5060523;28;20052;-82
2021/03/05 04:37:26;;;;;;;39.20;22.17;;;4.00;99.90;;;;;;5060568;28;20052;-82
2021/03/05 04:39:53;;;;;;;38.70;21.25;;;4.00;99.90;;;;;;5060819;28;20056;-83
2021/03/05 04:42:19;;;;;;;34.05;19.85;;;4.00;99.90;;;;;;5061794;28;20072;-81
2021/03/05 04:44:46;;;;;;;33.88;19.35;;;3.90;99.90;;;;;;5061519;28;20122;-81
2021/03/05 04:47:13;;;;;;;33.75;19.80;;;3.80;99.90;;;;;;5062506;28;20087;-80
2021/03/05 04:49:39;;;;;;;31.48;19.65;;;3.80;99.90;;;;;;5062466;28;20085;-82
2021/03/05 04:52:06;;;;;;;31.35;19.85;;;3.70;99.90;;;;;;5062981;28;20163;-81
2021/03/05 04:54:32;;;;;;;33.80;18.55;;;3.80;99.90;;;;;;5062375;28;20449;-82
2021/03/05 04:56:59;;;;;;;29.15;17.80;;;3.70;99.90;;;;;;5062213;28;20072;-81
2021/03/05 04:59:25;;;;;;;30.70;18.95;;;3.70;99.90;;;;;;5061766;28;20087;-81
2021/03/05 05:01:51;;;;;;;30.33;17.92;;;3.70;99.90;;;;;;5062536;28;20077;-81
2021/03/05 05:04:19;;;;;;;30.27;19.50;;;3.80;99.90;;;;;;5061491;28;20084;-82
2021/03/05 05:06:46;;;;;;;30.90;19.38;;;3.80;99.90;;;;;;5064404;28;20083;-82
2021/03/05 05:09:12;;;;;;;29.45;19.45;;;3.80;99.90;;;;;;5065980;28;20052;-81
2021/03/05 05:11:39;;;;;;;35.30;20.52;;;3.80;99.90;;;;;;5063635;28;20056;-82
2021/03/05 05:14:05;;;;;;;32.65;20.65;;;3.80;99.90;;;;;;5064885;28;20077;-83
2021/03/05 05:16:34;;;;;;;35.58;20.75;;;3.80;99.90;;;;;;5068859;28;20185;-82
2021/03/05 05:19:00;;;;;;;32.20;20.23;;;3.80;99.90;;;;;;5064442;28;20045;-82
2021/03/05 05:21:34;;;;;;;33.35;21.08;;;3.90;99.90;;;;;;5063310;28;20049;-83
2021/03/05 05:24:00;;;;;;;34.90;21.25;;;3.90;99.90;;;;;;5062630;28;20122;-82
2021/03/05 05:26:27;;;;;;;36.08;21.50;;;3.90;99.90;;;;;;5061559;28;20048;-83
2021/03/05 05:28:53;;;;;;;35.15;22.05;;;3.90;99.90;;;;;;5058582;28;20108;-82
2021/03/05 05:31:19;;;;;;;38.30;24.27;;;3.90;99.90;;;;;;5057976;28;20626;-82
2021/03/05 05:33:46;;;;;;;41.50;22.52;;;3.90;99.90;;;;;;5057120;28;20083;-84
2021/03/05 05:36:12;;;;;;;36.05;23.10;;;3.90;99.90;;;;;;5055629;28;20085;-85
2021/03/05 05:38:39;;;;;;;39.45;23.20;;;3.90;99.90;;;;;;5057409;28;20049;-84
2021/03/05 05:41:06;;;;;;;37.80;22.92;;;4.00;99.90;;;;;;5057204;28;20084;-84
2021/03/05 05:43:32;;;;;;;34.92;21.50;;;4.00;99.90;;;;;;5059963;28;20087;-84
2021/03/05 05:46:04;;;;;;;35.78;22.13;;;4.00;99.90;;;;;;5064520;28;20469;-81
2021/03/05 05:48:31;;;;;;;33.40;21.40;;;3.90;99.90;;;;;;5062648;28;20072;-81
2021/03/05 05:50:58;;;;;;;31.27;20.90;;;3.90;99.90;;;;;;5062737;28;20049;-81
2021/03/05 05:53:31;;;;;;;35.92;20.90;;;3.90;99.90;;;;;;5061584;28;20145;-84
2021/03/05 05:55:59;;;;;;;30.70;20.13;;;3.80;99.90;;;;;;5060150;28;20074;-81
2021/03/05 05:58:27;;;;;;;28.27;18.85;;;3.80;99.90;;;;;;5061695;28;20057;-82
2021/03/05 06:00:57;;;;;;;28.38;18.50;;;3.80;99.90;;;;;;5063150;28;20045;-81
2021/03/05 06:03:28;;;;;;;29.80;18.40;;;3.80;99.90;;;;;;5064122;28;20053;-81
2021/03/05 06:05:57;;;;;;;25.60;16.88;;;3.80;99.90;;;;;;5067762;28;20519;-83
2021/03/05 06:08:24;;;;;;;25.80;17.02;;;3.70;99.90;;;;;;5076247;28;20033;-84
2021/03/05 06:10:52;;;;;;;26.45;16.65;;;3.70;99.90;;;;;;5076782;28;20033;-83
2021/03/05 06:13:20;;;;;;;26.92;16.10;;;3.70;99.90;;;;;;5073544;28;20049;-82
2021/03/05 06:16:09;;;;;;;23.17;15.23;;;3.80;99.90;;;;;;5074470;28;20045;-82
2021/03/05 06:18:35;;;;;;;26.88;16.30;;;3.80;99.90;;;;;;5075320;28;20029;-82
2021/03/05 06:21:02;;;;;;;25.27;16.23;;;3.70;99.90;;;;;;5075490;28;20053;-81
2021/03/05 06:23:35;;;;;;;27.85;16.65;;;3.70;99.90;;;;;;5076930;28;20045;-82
2021/03/05 06:26:05;;;;;;;25.13;15.65;;;3.70;99.90;;;;;;5077545;28;20036;-82
2021/03/05 06:28:36;;;;;;;23.75;14.88;;;3.70;99.90;;;;;;5077430;28;20049;-83
2021/03/05 06:31:13;;;;;;;26.42;15.60;;;3.60;99.90;;;;;;5074579;28;20063;-80
2021/03/05 06:33:39;;;;;;;24.27;15.73;;;3.60;99.90;;;;;;5073744;28;20086;-81
2021/03/05 06:36:18;;;;;;;20.38;13.82;;;3.60;99.90;;;;;;5075022;28;20049;-83
2021/03/05 06:38:47;;;;;;;19.35;13.20;;;3.70;99.90;;;;;;5075581;28;20045;-81
2021/03/05 06:41:18;;;;;;;20.48;12.55;;;3.60;99.90;;;;;;5076313;28;20454;-81
2021/03/05 06:43:47;;;;;;;22.27;13.10;;;3.50;99.90;;;;;;5075307;28;20056;-82
2021/03/05 06:46:29;;;;;;;18.23;11.93;;;3.50;99.90;;;;;;5073908;28;20049;-82
2021/03/05 06:48:57;;;;;;;20.65;13.50;;;3.60;99.90;;;;;;5072943;28;20072;-81
2021/03/05 06:51:23;;;;;;;19.30;11.88;;;3.50;99.90;;;;;;5063710;28;20087;-81
2021/03/05 06:54:01;;;;;;;16.42;11.13;;;3.50;99.90;;;;;;5063904;28;20079;-82
2021/03/05 06:56:28;;;;;;;16.75;11.43;;;3.50;99.90;;;;;;5064784;28;20048;-82
2021/03/05 06:58:59;;;;;;;14.90;10.18;;;3.50;99.90;;;;;;5063413;28;20049;-82
2021/03/05 07:01:26;;;;;;;16.05;9.98;;;3.40;99.90;;;;;;5070002;28;20053;-82
2021/03/05 07:04:06;;;;;;;21.55;9.98;;;3.30;99.90;;;;;;5069741;28;20041;-82
2021/03/05 07:06:33;;;;;;;14.65;9.55;;;3.20;99.90;;;;;;5063304;28;20076;-81
2021/03/05 07:08:59;;;;;;;14.05;8.77;;;3.20;99.90;;;;;;5063120;28;20088;-82
2021/03/05 07:11:35;;;;;;;16.00;9.15;;;3.20;99.90;;;;;;5062883;28;20049;-81
2021/03/05 07:14:03;;;;;;;13.65;8.38;;;3.20;99.90;;;;;;5062078;28;20045;-82
2021/03/05 07:16:47;;;;;;;13.20;7.97;;;3.40;99.90;;;;;;5061499;28;20044;-83
2021/03/05 07:19:19;;;;;;;14.50;7.45;;;3.70;99.90;;;;;;5060448;28;20419;-83
2021/03/05 07:21:47;;;;;;;14.45;7.40;;;4.10;99.90;;;;;;5059259;28;20103;-84
2021/03/05 07:24:16;;;;;;;12.50;7.40;;;4.40;99.90;;;;;;5059955;28;20064;-83
2021/03/05 07:26:52;;;;;;;14.93;8.25;;;4.60;99.90;;;;;;5061070;28;20048;-83
2021/03/05 07:29:21;;;;;;;10.80;7.63;;;4.80;99.90;;;;;;5060758;28;20055;-84
2021/03/05 07:32:02;;;;;;;10.80;6.53;;;5.00;99.90;;;;;;5064520;28;20045;-84
2021/03/05 07:34:30;;;;;;;13.15;7.53;;;5.20;99.90;;;;;;5062802;28;20048;-84
2021/03/05 07:37:00;;;;;;;13.98;7.10;;;5.30;99.90;;;;;;5068436;28;20061;-83
2021/03/05 07:39:33;;;;;;;9.70;5.93;;;5.40;99.90;;;;;;5067219;28;20041;-85
2021/03/05 07:42:00;;;;;;;11.20;6.70;;;5.20;99.90;;;;;;5064078;28;20072;-83
2021/03/05 07:44:27;;;;;;;10.48;6.30;;;5.20;99.90;;;;;;5063935;28;20396;-85
2021/03/05 07:46:55;;;;;;;8.68;6.07;;;5.30;99.90;;;;;;5064193;28;20057;-84
2021/03/05 07:49:27;;;;;;;11.60;6.13;;;5.10;99.90;;;;;;5063910;28;20045;-84
2021/03/05 07:51:56;;;;;;;12.13;6.25;;;5.20;99.90;;;;;;5063198;28;20080;-84
2021/03/05 07:54:45;;;;;;;10.30;6.70;;;5.20;99.90;;;;;;5062909;28;20045;-84
2021/03/05 07:57:44;;;;;;;13.57;6.80;;;5.30;99.90;;;;;;5063763;28;20049;-84
2021/03/05 08:00:13;;;;;;;10.13;6.10;;;5.50;99.90;;;;;;5068176;28;20053;-82
2021/03/05 08:02:54;;;;;;;11.85;6.78;;;5.70;99.90;;;;;;5066548;28;20087;-83
2021/03/05 08:05:38;;;;;;;13.00;6.07;;;5.60;99.90;;;;;;5068765;28;20068;-84
2021/03/05 08:08:27;;;;;;;8.98;5.95;;;5.70;99.90;;;;;;5065705;28;20045;-84
2021/03/05 08:10:57;;;;;;;8.73;6.15;;;5.50;99.90;;;;;;5068542;28;20150;-84
2021/03/05 08:13:51;;;;;;;9.20;5.72;;;5.30;99.90;;;;;;5069155;28;20056;-84
2021/03/05 08:16:39;;;;;;;11.00;6.15;;;5.40;99.90;;;;;;5068154;28;20049;-83
2021/03/05 08:19:48;;;;;;;9.82;5.90;;;5.20;99.90;;;;;;5063809;28;20041;-83
2021/03/05 08:22:16;;;;;;;10.13;6.20;;;5.10;99.90;;;;;;5067822;28;20120;-84
2021/03/05 08:24:43;;;;;;;11.73;6.20;;;4.90;99.90;;;;;;5065514;28;20067;-84
2021/03/05 08:27:13;;;;;;;9.93;5.88;;;5.00;99.90;;;;;;5065168;28;20045;-84
2021/03/05 08:30:04;;;;;;;9.50;5.90;;;5.10;99.90;;;;;;5066624;28;20133;-84
2021/03/05 08:33:02;;;;;;;13.77;5.80;;;5.20;99.90;;;;;;5065685;28;20053;-83
2021/03/05 08:35:50;;;;;;;9.82;6.20;;;5.20;99.90;;;;;;5065132;28;20061;-81
2021/03/05 08:38:19;;;;;;;7.97;5.18;;;5.40;99.90;;;;;;5067911;28;20072;-83
2021/03/05 08:40:52;;;;;;;9.35;5.85;;;5.60;99.90;;;;;;5071457;28;20087;-84
2021/03/05 08:43:26;;;;;;;9.95;5.75;;;5.50;99.90;;;;;;5070602;28;20059;-83
2021/03/05 08:45:54;;;;;;;10.60;6.20;;;5.40;99.90;;;;;;5070644;28;20478;-82
2021/03/05 08:48:30;;;;;;;8.02;5.93;;;5.20;99.90;;;;;;5070568;28;20049;-82
2021/03/05 08:51:11;;;;;;;10.85;5.68;;;5.10;99.90;;;;;;5070595;28;20061;-83
2021/03/05 08:53:50;;;;;;;10.15;6.07;;;5.20;99.90;;;;;;5068715;28;20430;-84
2021/03/05 08:56:20;;;;;;;11.98;6.40;;;5.10;99.90;;;;;;5070141;28;20048;-84
2021/03/05 08:58:56;;;;;;;13.15;6.55;;;5.10;99.90;;;;;;5069315;28;20049;-82
2021/03/05 09:05:12;;;;;;;14.43;7.13;;;5.10;99.90;;;;;;5099755;28;20048;-78
2021/03/05 09:08:26;;;;;;;11.88;7.32;;;5.10;99.90;;;;;;5082170;28;20066;-79
2021/03/05 09:11:10;;;;;;;10.73;6.30;;;5.20;99.90;;;;;;5125597;28;20043;-80
2021/03/05 09:13:48;;;;;;;9.95;6.40;;;5.20;99.90;;;;;;5109766;28;20056;-78
2021/03/05 09:16:17;;;;;;;11.50;6.72;;;4.90;99.90;;;;;;5106634;28;20094;-79
2021/03/05 09:18:51;;;;;;;9.02;6.28;;;4.90;99.90;;;;;;5101814;28;20095;-78
2021/03/05 09:21:32;;;;;;;9.40;6.68;;;4.80;99.90;;;;;;5078858;28;20102;-79
2021/03/05 09:24:14;;;;;;;12.00;6.80;;;4.60;99.90;;;;;;5077917;28;20044;-77
2021/03/05 09:26:41;;;;;;;9.25;6.10;;;4.30;99.90;;;;;;5083799;28;20049;-78
2021/03/05 09:29:14;;;;;;;10.35;6.35;;;4.30;99.90;;;;;;5089115;28;20057;-79
2021/03/05 09:31:43;;;;;;;10.48;6.18;;;4.30;99.90;;;;;;5089208;28;20040;-80
2021/03/05 09:34:14;;;;;;;11.25;6.50;;;4.40;99.90;;;;;;5090408;28;20052;-79
2021/03/05 09:36:40;;;;;;;10.20;7.03;;;4.40;99.90;;;;;;5089282;28;20048;-79
2021/03/05 09:39:08;;;;;;;11.52;7.35;;;4.30;99.90;;;;;;5088863;28;20094;-80
2021/03/05 09:41:34;;;;;;;12.82;6.93;;;4.30;99.90;;;;;;5082245;28;20052;-79
2021/03/05 09:44:02;;;;;;;13.13;7.20;;;4.20;99.90;;;;;;5078262;28;20045;-78
2021/03/05 09:46:30;;;;;;;11.70;7.22;;;4.10;99.90;;;;;;5077957;28;20059;-78
2021/03/05 09:48:57;;;;;;;13.55;7.65;;;4.10;99.90;;;;;;5083318;28;20044;-78
2021/03/05 09:51:25;;;;;;;11.63;7.45;;;4.10;99.90;;;;;;5078785;28;20067;-77
2021/03/05 09:53:53;;;;;;;12.90;8.43;;;4.20;99.90;;;;;;5082360;28;20048;-80
2021/03/05 09:56:23;;;;;;;12.35;9.00;;;4.10;99.90;;;;;;5087695;28;20048;-80
2021/03/05 09:58:58;;;;;;;12.27;8.73;;;4.20;99.90;;;;;;5096871;28;20028;-86
2021/03/05 10:01:26;;;;;;;14.68;8.57;;;4.20;99.90;;;;;;5096418;28;20035;-82
2021/03/05 10:03:54;;;;;;;13.77;9.48;;;4.40;99.90;;;;;;5091176;28;20112;-81
2021/03/05 10:06:21;;;;;;;14.40;9.85;;;4.40;99.90;;;;;;5080016;28;20052;-81
2021/03/05 10:08:56;;;;;;;14.88;9.57;;;4.50;99.90;;;;;;5079622;28;20506;-83
2021/03/05 10:11:33;;;;;;;16.42;9.30;;;4.80;99.90;;;;;;5079275;28;20053;-83
2021/03/05 10:13:59;;;;;;;11.77;9.02;;;4.70;99.90;;;;;;5077413;28;20406;-80
2021/03/05 10:16:28;;;;;;;21.10;10.32;;;4.60;99.90;;;;;;5076225;28;20051;-82
2021/03/05 10:18:57;;;;;;;14.23;9.93;;;4.70;99.90;;;;;;5078331;28;20087;-82
2021/03/05 10:21:24;;;;;;;15.25;10.18;;;4.90;99.90;;;;;;5078244;28;20056;-81
2021/03/05 10:23:50;;;;;;;15.38;10.05;;;4.90;99.90;;;;;;5078010;28;20084;-82
2021/03/05 10:26:19;;;;;;;15.80;10.55;;;4.80;99.90;;;;;;5089991;28;20484;-80
2021/03/05 10:28:52;;;;;;;17.77;10.50;;;4.90;99.90;;;;;;5064828;28;20045;-81
2021/03/05 10:31:19;;;;;;;14.43;9.30;;;5.00;99.90;;;;;;5064832;28;20052;-82
2021/03/05 10:33:46;;;;;;;14.57;9.43;;;5.10;99.90;;;;;;5069531;28;20075;-83
2021/03/05 10:36:14;;;;;;;14.15;9.60;;;5.10;99.90;;;;;;5067802;28;20060;-83
2021/03/05 10:38:42;;;;;;;12.90;9.40;;;5.00;99.90;;;;;;5061105;28;20080;-83
2021/03/05 10:41:09;;;;;;;13.60;8.93;;;5.00;99.90;;;;;;5064085;28;20056;-84
2021/03/05 10:43:36;;;;;;;11.43;8.55;;;5.10;99.90;;;;;;5059333;28;20406;-83
2021/03/05 10:46:04;;;;;;;11.60;8.55;;;5.30;99.90;;;;;;5060230;28;20557;-85
2021/03/05 10:48:35;;;;;;;12.57;8.73;;;5.20;99.90;;;;;;5060842;28;20081;-83
2021/03/05 10:51:02;;;;;;;12.50;8.88;;;5.30;99.90;;;;;;5062025;28;20526;-82
2021/03/05 10:53:28;;;;;;;10.98;8.07;;;5.40;99.90;;;;;;5061809;28;20065;-83
2021/03/05 10:55:55;;;;;;;12.05;8.40;;;5.50;99.90;;;;;;5061210;28;20057;-84
2021/03/05 10:58:21;;;;;;;14.65;9.00;;;5.60;99.90;;;;;;5062344;28;20414;-84
2021/03/05 11:00:48;;;;;;;12.13;9.43;;;5.70;99.90;;;;;;5063878;28;20056;-83
2021/03/05 11:03:15;;;;;;;13.07;8.43;;;5.60;99.90;;;;;;5063908;28;20049;-85
2021/03/05 11:05:41;;;;;;;12.13;8.80;;;5.70;99.90;;;;;;5064529;28;20419;-84
2021/03/05 11:08:08;;;;;;;13.60;9.18;;;5.40;99.90;;;;;;5064176;28;20071;-86
2021/03/05 11:10:41;;;;;;;12.30;8.30;;;5.30;99.90;;;;;;5065831;28;20053;-85
2021/03/05 11:13:07;;;;;;;10.50;7.57;;;5.50;99.90;;;;;;5060463;28;20081;-84
2021/03/05 11:15:33;;;;;;;10.40;7.20;;;5.40;99.90;;;;;;5058845;28;20080;-83
2021/03/05 11:18:00;;;;;;;10.15;7.75;;;5.20;99.90;;;;;;5060540;28;20045;-84
2021/03/05 11:20:27;;;;;;;11.30;7.93;;;5.20;99.90;;;;;;5061710;28;20126;-83
2021/03/05 11:22:59;;;;;;;10.68;7.75;;;5.40;99.90;;;;;;5061524;28;20049;-83
2021/03/05 11:25:36;;;;;;;12.52;8.77;;;5.60;99.90;;;;;;5059940;28;20084;-83
2021/03/05 11:28:10;;;;;;;11.32;8.23;;;5.90;99.90;;;;;;5058517;28;20057;-83
2021/03/05 11:30:36;;;;;;;11.90;8.07;;;5.90;99.90;;;;;;5059308;28;20084;-83
2021/03/05 11:33:03;;;;;;;10.80;7.68;;;5.90;99.90;;;;;;5060794;28;20094;-84
2021/03/05 11:35:34;;;;;;;13.52;7.22;;;5.80;99.90;;;;;;5064016;28;20466;-84
2021/03/05 11:38:01;;;;;;;11.23;7.15;;;5.70;99.90;;;;;;5062809;28;20048;-81
2021/03/05 11:40:27;;;;;;;12.98;7.90;;;5.40;99.90;;;;;;5062478;28;20604;-83
2021/03/05 12:02:56;;;;;;;11.60;7.82;;;5.60;99.90;;;;;;4769126;29;20046;-82
2021/03/05 12:05:23;;;;;;;12.80;7.80;;;5.60;99.90;;;;;;4942302;29;20055;-83
2021/03/05 12:07:55;;;;;;;12.23;7.15;;;5.70;99.90;;;;;;5007113;28;20036;-80
2021/03/05 12:10:22;;;;;;;12.30;7.50;;;5.50;99.90;;;;;;5053068;28;20067;-78
2021/03/05 12:12:48;;;;;;;9.82;7.32;;;5.30;99.90;;;;;;5071675;28;20029;-78
2021/03/05 12:15:16;;;;;;;11.13;7.15;;;5.20;99.90;;;;;;5071524;28;20067;-79
2021/03/05 12:17:43;;;;;;;11.15;7.05;;;5.40;99.90;;;;;;5071545;28;20053;-81
2021/03/05 12:20:12;;;;;;;11.82;7.22;;;5.60;99.90;;;;;;5078672;28;20040;-83
2021/03/05 12:22:38;;;;;;;11.38;6.93;;;5.80;99.90;;;;;;5077938;28;20075;-82
2021/03/05 12:25:06;;;;;;;9.50;6.88;;;5.70;99.90;;;;;;5073418;28;20053;-82
2021/03/05 12:27:32;;;;;;;9.95;7.05;;;5.80;99.90;;;;;;5072252;28;20053;-80
2021/03/05 12:29:59;;;;;;;13.25;7.82;;;5.90;99.90;;;;;;5073223;28;20392;-80
2021/03/05 12:32:25;;;;;;;12.73;7.10;;;5.90;99.90;;;;;;5072497;28;20048;-83
2021/03/05 12:34:52;;;;;;;10.88;7.53;;;6.00;99.90;;;;;;5072477;28;20063;-83
2021/03/05 12:37:19;;;;;;;12.15;7.22;;;6.00;99.90;;;;;;5069341;28;20049;-80
2021/03/05 12:39:46;;;;;;;12.10;6.95;;;6.20;99.90;;;;;;5073716;28;20119;-82
2021/03/05 12:42:14;;;;;;;11.73;7.35;;;6.20;99.90;;;;;;5075680;28;20057;-83
2021/03/05 12:44:41;;;;;;;10.60;6.65;;;5.90;99.90;;;;;;5075949;28;20049;-83
2021/03/05 12:47:08;;;;;;;11.10;6.88;;;5.60;99.90;;;;;;5074366;28;20049;-83
2021/03/05 12:49:34;;;;;;;10.43;7.40;;;5.50;99.90;;;;;;5072874;28;20045;-82
2021/03/05 12:52:01;;;;;;;10.10;6.40;;;5.50;99.90;;;;;;5073106;28;20060;-82
2021/03/05 12:54:28;;;;;;;9.88;6.85;;;5.50;99.90;;;;;;5073183;28;20045;-82
2021/03/05 12:56:55;;;;;;;9.50;6.78;;;5.60;99.90;;;;;;5072605;28;20072;-79
2021/03/05 12:59:21;;;;;;;11.68;6.95;;;5.60;99.90;;;;;;5073190;28;20060;-82
2021/03/05 13:01:48;;;;;;;10.02;6.65;;;5.60;99.90;;;;;;5073273;28;20052;-82
2021/03/05 13:04:14;;;;;;;10.15;6.40;;;5.60;99.90;;;;;;5073343;28;20059;-83
2021/03/05 13:06:41;;;;;;;9.68;6.50;;;5.60;99.90;;;;;;5072095;28;20068;-82
2021/03/05 13:09:07;;;;;;;7.82;5.88;;;5.60;99.90;;;;;;5072656;28;20056;-83
2021/03/05 13:11:36;;;;;;;8.95;5.53;;;5.60;99.90;;;;;;5072187;28;20071;-82
2021/03/05 13:14:02;;;;;;;10.20;6.57;;;5.80;99.90;;;;;;5072530;28;20123;-82
2021/03/05 13:16:29;;;;;;;10.32;6.60;;;6.00;99.90;;;;;;5071607;28;20044;-82
2021/03/05 13:18:56;;;;;;;9.27;6.18;;;6.00;99.90;;;;;;5072452;28;20059;-84
2021/03/05 13:21:22;;;;;;;10.48;5.40;;;6.10;99.90;;;;;;5072134;28;20056;-84